Time;durP1;ratioP1;P1;durP2;ratioP2;P2;SDS_P1;SDS_P2;PMS_P1;PMS_P2;Temp;Humidity;BMP_temperature;BMP_pressure;BME280_temperature;BME280_humidity;BME280_pressure;Samples;Min_cycle;Max_cycle;Signal;HPM_P1;HPM_P2
2022/06/19 00:01:02;;;;;;;1999.90;999.90;;;16.50;99.90;;;;;;5071015;28;20041;-80
2022/06/19 00:03:35;;;;;;;1955.40;999.90;;;16.50;99.90;;;;;;5041387;28;20093;-80
2022/06/19 00:06:01;;;;;;;1999.90;999.90;;;16.50;99.90;;;;;;5054566;28;20045;-80
2022/06/19 00:08:28;;;;;;;1999.90;999.90;;;16.40;99.90;;;;;;5042283;28;20087;-80
2022/06/19 00:10:53;;;;;;;1999.90;999.90;;;16.40;99.90;;;;;;5039543;28;20124;-80
2022/06/19 00:13:19;;;;;;;1256.05;836.45;;;16.40;99.90;;;;;;5043293;28;20509;-80
2022/06/19 00:15:45;;;;;;;1986.75;948.63;;;16.40;99.90;;;;;;5051422;28;20044;-81
2022/06/19 00:18:10;;;;;;;1279.22;999.90;;;16.40;99.90;;;;;;5030486;28;20042;-81
2022/06/19 00:20:36;;;;;;;964.13;869.15;;;16.40;99.90;;;;;;5051236;28;20124;-81
2022/06/19 00:23:02;;;;;;;1999.90;901.15;;;16.40;99.90;;;;;;5043217;28;20095;-81
2022/06/19 00:25:28;;;;;;;1999.90;960.72;;;16.40;99.90;;;;;;5041116;28;20041;-80
2022/06/19 00:27:54;;;;;;;639.75;553.90;;;16.30;99.90;;;;;;5040047;28;20620;-80
2022/06/19 00:30:20;;;;;;;1410.23;999.90;;;16.40;99.90;;;;;;5039830;28;20323;-80
2022/06/19 00:32:46;;;;;;;602.20;561.28;;;16.30;99.90;;;;;;5044141;28;20041;-81
2022/06/19 00:35:12;;;;;;;968.80;873.85;;;16.30;99.90;;;;;;5044149;28;20158;-80
2022/06/19 00:37:38;;;;;;;671.97;626.17;;;16.30;99.90;;;;;;5044928;28;20037;-80
2022/06/19 00:40:06;;;;;;;1381.68;979.42;;;16.20;99.90;;;;;;5045606;28;20124;-81
2022/06/19 00:42:31;;;;;;;;;;;16.20;99.90;;;;;;5077311;28;20435;-80
2022/06/19 00:44:57;;;;;;;1152.97;987.00;;;16.10;99.90;;;;;;5048561;28;20016;-81
2022/06/19 00:47:26;;;;;;;1044.22;934.60;;;16.00;99.90;;;;;;5043506;28;20132;-80
2022/06/19 00:50:04;;;;;;;966.90;868.85;;;16.00;99.90;;;;;;5043716;28;20041;-80
2022/06/19 00:52:37;;;;;;;763.90;710.15;;;16.00;99.90;;;;;;5042941;28;20051;-80
2022/06/19 00:55:09;;;;;;;1275.93;999.90;;;15.90;99.90;;;;;;5048002;28;20104;-80
2022/06/19 00:57:39;;;;;;;1997.32;999.90;;;15.90;99.90;;;;;;5060606;28;20053;-80
2022/06/19 01:00:10;;;;;;;912.92;829.22;;;15.90;99.90;;;;;;5037186;28;20052;-80
2022/06/19 01:02:41;;;;;;;1212.00;993.92;;;16.00;99.90;;;;;;5043724;28;20092;-80
2022/06/19 01:05:11;;;;;;;996.33;896.50;;;16.00;99.90;;;;;;5046047;28;20047;-80
2022/06/19 01:07:38;;;;;;;849.75;778.38;;;16.00;99.90;;;;;;5042626;28;20072;-80
2022/06/19 01:10:05;;;;;;;1283.30;999.90;;;15.90;99.90;;;;;;5046877;28;20347;-81
2022/06/19 01:12:31;;;;;;;1641.45;994.58;;;15.90;99.90;;;;;;5048369;28;20124;-80
2022/06/19 01:15:03;;;;;;;935.60;850.95;;;15.90;99.90;;;;;;5045874;28;20048;-80
2022/06/19 01:17:32;;;;;;;1079.85;876.50;;;15.90;99.90;;;;;;5047807;28;20128;-80
2022/06/19 01:19:59;;;;;;;868.17;783.97;;;15.90;99.90;;;;;;5043925;28;20036;-79
2022/06/19 01:22:41;;;;;;;712.55;664.13;;;15.90;99.90;;;;;;5044617;28;20095;-80
2022/06/19 01:25:15;;;;;;;816.78;748.03;;;15.90;99.90;;;;;;5045571;28;20056;-80
2022/06/19 01:30:34;;;;;;;782.10;725.83;;;15.90;99.90;;;;;;5047496;28;20057;-80
2022/06/19 01:33:01;;;;;;;;;;;15.80;99.90;;;;;;5049616;28;20111;-81
2022/06/19 01:35:31;;;;;;;924.95;835.67;;;15.80;99.90;;;;;;5045349;28;20254;-80
2022/06/19 01:37:57;;;;;;;788.85;728.03;;;15.80;99.90;;;;;;5028550;28;20080;-80
2022/06/19 01:40:27;;;;;;;1038.75;927.38;;;15.80;99.90;;;;;;5046189;28;20042;-80
2022/06/19 01:42:54;;;;;;;1105.30;956.20;;;15.70;99.90;;;;;;5042353;28;20477;-81
2022/06/19 01:45:20;;;;;;;1999.90;999.90;;;15.80;99.90;;;;;;5077127;28;20056;-80
2022/06/19 01:47:46;;;;;;;1380.38;999.90;;;15.80;99.90;;;;;;5046516;28;20187;-80
2022/06/19 01:50:19;;;;;;;1321.47;999.90;;;15.80;99.90;;;;;;5045040;28;20108;-80
2022/06/19 01:52:48;;;;;;;1190.13;970.15;;;15.70;99.90;;;;;;5049670;28;20485;-81
2022/06/19 01:55:17;;;;;;;1207.63;996.50;;;15.70;99.90;;;;;;5042869;28;20051;-80
2022/06/19 01:57:51;;;;;;;1429.07;999.90;;;15.70;99.90;;;;;;5064808;28;20048;-80
2022/06/19 02:00:24;;;;;;;1508.32;999.90;;;15.70;99.90;;;;;;5040574;28;20554;-80
2022/06/19 02:03:04;;;;;;;1964.60;999.90;;;15.70;99.90;;;;;;5073871;28;20055;-79
2022/06/19 02:05:32;;;;;;;1581.78;999.90;;;15.70;99.90;;;;;;5041404;28;20413;-80
2022/06/19 02:07:58;;;;;;;1972.18;999.90;;;15.70;99.90;;;;;;5042111;28;20234;-80
2022/06/19 02:10:24;;;;;;;1742.63;999.90;;;15.70;99.90;;;;;;5041785;28;20075;-80
2022/06/19 02:12:50;;;;;;;1999.90;999.90;;;15.70;99.90;;;;;;5040700;28;20059;-79
2022/06/19 02:15:17;;;;;;;1291.65;999.90;;;15.70;99.90;;;;;;5043381;28;20063;-80
2022/06/19 02:17:49;;;;;;;1286.35;999.90;;;15.70;99.90;;;;;;5057927;28;20489;-79
2022/06/19 02:20:16;;;;;;;1891.53;986.13;;;15.70;99.90;;;;;;5059819;28;20088;-79
2022/06/19 02:22:42;;;;;;;1184.37;990.40;;;15.70;99.90;;;;;;5043214;28;20472;-80
2022/06/19 02:25:08;;;;;;;1347.22;999.90;;;15.70;99.90;;;;;;5043453;28;20124;-79
2022/06/19 02:27:35;;;;;;;1999.90;999.90;;;15.80;99.90;;;;;;5072496;28;20045;-80
2022/06/19 02:30:03;;;;;;;1293.53;999.90;;;16.40;99.90;;;;;;5041992;28;20076;-80
2022/06/19 02:32:44;;;;;;;1697.05;999.90;;;15.70;99.90;;;;;;5048552;28;20606;-79
2022/06/19 02:35:21;;;;;;;1410.35;999.90;;;15.70;99.90;;;;;;5048652;28;20041;-80
2022/06/19 02:37:55;;;;;;;1222.28;985.20;;;15.60;99.90;;;;;;5081385;28;20118;-80
2022/06/19 02:40:27;;;;;;;1244.90;999.60;;;15.60;99.90;;;;;;5041975;28;20533;-80
2022/06/19 02:42:52;;;;;;;1370.57;999.90;;;15.60;99.90;;;;;;5047071;28;20136;-80
2022/06/19 02:45:27;;;;;;;1400.40;999.90;;;15.60;99.90;;;;;;5047361;28;20069;-80
2022/06/19 02:47:55;;;;;;;1999.90;853.53;;;15.60;99.90;;;;;;5048248;28;20083;-80
2022/06/19 02:50:28;;;;;;;1999.90;985.42;;;15.40;1.00;;;;;;5038341;28;20174;-82
2022/06/19 02:52:54;;;;;;;1999.90;886.70;;;15.20;70.50;;;;;;5046332;28;20489;-80
2022/06/19 02:55:21;;;;;;;1999.90;973.88;;;14.70;99.90;;;;;;5031696;28;20061;-82
2022/06/19 02:57:48;;;;;;;1999.90;987.03;;;14.40;1.00;;;;;;5047944;28;20041;-82
2022/06/19 03:00:23;;;;;;;1999.90;999.90;;;14.60;96.00;;;;;;5047462;28;20178;-85
2022/06/19 03:02:57;;;;;;;1999.90;999.90;;;14.50;99.90;;;;;;5078186;28;20422;-79
2022/06/19 03:05:26;;;;;;;1999.90;997.30;;;14.00;99.90;;;;;;5050434;28;20041;-77
2022/06/19 03:07:52;;;;;;;1999.90;993.63;;;14.00;99.90;;;;;;5051534;28;20484;-76
2022/06/19 03:10:18;;;;;;;1999.90;998.58;;;14.50;99.90;;;;;;5052042;28;20088;-76
2022/06/19 03:12:46;;;;;;;1999.90;987.45;;;14.00;99.90;;;;;;5052510;28;20163;-76
2022/06/19 03:15:13;;;;;;;1999.90;961.45;;;14.50;99.90;;;;;;5051234;28;20477;-77
2022/06/19 03:17:40;;;;;;;1999.90;999.90;;;13.90;99.90;;;;;;5052278;28;20048;-75
2022/06/19 03:20:07;;;;;;;1999.90;999.90;;;13.90;99.90;;;;;;5052559;28;20052;-76
2022/06/19 03:22:33;;;;;;;1999.90;934.95;;;14.50;99.90;;;;;;5052208;28;20045;-75
2022/06/19 03:25:00;;;;;;;1998.75;955.25;;;14.60;99.90;;;;;;5068245;28;20048;-76
2022/06/19 03:27:26;;;;;;;1999.90;922.40;;;14.10;99.90;;;;;;5050711;28;20048;-80
2022/06/19 03:29:51;;;;;;;1999.90;950.42;;;14.50;99.90;;;;;;5051720;28;20280;-76
2022/06/19 03:32:17;;;;;;;1999.90;949.30;;;14.00;99.90;;;;;;5050763;28;20047;-78
2022/06/19 03:34:43;;;;;;;1996.93;941.92;;;14.30;99.90;;;;;;5051605;28;20041;-75
2022/06/19 03:37:10;;;;;;;1999.90;941.15;;;13.90;99.90;;;;;;5049285;28;20063;-75
2022/06/19 03:39:36;;;;;;;1999.90;979.17;;;14.30;99.90;;;;;;5082954;28;20052;-75
2022/06/19 03:42:02;;;;;;;1999.63;937.90;;;14.00;99.90;;;;;;5048686;28;20047;-75
2022/06/19 03:44:28;;;;;;;1985.22;943.33;;;14.40;99.90;;;;;;5050750;28;20457;-75
2022/06/19 03:46:54;;;;;;;1999.90;999.90;;;14.10;99.90;;;;;;5049794;28;20060;-76
2022/06/19 03:49:20;;;;;;;1999.90;989.42;;;14.10;99.90;;;;;;5050090;28;20041;-76
2022/06/19 03:51:46;;;;;;;1999.90;873.80;;;14.30;99.90;;;;;;5049959;28;20087;-77
2022/06/19 03:54:11;;;;;;;1999.90;998.35;;;14.20;99.90;;;;;;5050062;28;20187;-76
2022/06/19 03:56:37;;;;;;;1999.90;843.08;;;14.40;99.90;;;;;;5050604;28;20525;-77
2022/06/19 03:59:04;;;;;;;1999.90;801.97;;;14.40;99.90;;;;;;5065887;28;20045;-77
2022/06/19 04:01:33;;;;;;;1710.93;785.40;;;14.20;99.90;;;;;;5049753;28;20049;-76
2022/06/19 04:04:00;;;;;;;1999.90;954.45;;;13.90;99.90;;;;;;5049198;28;20060;-77
2022/06/19 04:06:29;;;;;;;1999.90;946.05;;;13.60;99.90;;;;;;5051178;28;20056;-76
2022/06/19 04:08:55;;;;;;;1999.90;935.67;;;14.30;99.90;;;;;;5049401;28;20084;-76
2022/06/19 04:11:23;;;;;;;1973.72;963.35;;;13.90;99.90;;;;;;5049351;28;20052;-79
2022/06/19 04:13:52;;;;;;;1999.90;951.65;;;13.70;99.90;;;;;;5048139;28;20057;-76
2022/06/19 04:16:21;;;;;;;1956.22;777.60;;;14.20;99.90;;;;;;5048993;28;20065;-78
2022/06/19 04:18:49;;;;;;;1999.90;746.70;;;13.80;99.90;;;;;;5050558;28;20132;-77
2022/06/19 04:21:17;;;;;;;1923.72;827.83;;;13.90;99.90;;;;;;5049931;28;20072;-76
2022/06/19 04:23:43;;;;;;;1999.90;976.13;;;14.20;99.90;;;;;;5048383;28;20369;-76
2022/06/19 04:26:11;;;;;;;1999.90;901.08;;;13.80;99.90;;;;;;5049628;28;20047;-76
2022/06/19 04:28:37;;;;;;;;;;;14.00;99.90;;;;;;5050221;28;20114;-76
2022/06/19 04:31:03;;;;;;;1999.90;879.42;;;13.90;99.90;;;;;;5049444;28;19921;-80
2022/06/19 04:33:30;;;;;;;1999.90;921.28;;;14.30;99.90;;;;;;5049879;28;20149;-79
2022/06/19 04:35:56;;;;;;;1999.90;999.90;;;14.40;99.90;;;;;;5050834;28;20071;-76
2022/06/19 04:38:22;;;;;;;1999.90;922.97;;;14.10;99.90;;;;;;5051070;28;20054;-75
2022/06/19 04:40:47;;;;;;;1999.90;991.70;;;14.20;99.90;;;;;;5048311;28;20041;-76
2022/06/19 04:43:13;;;;;;;1999.90;992.40;;;14.00;99.90;;;;;;5048392;28;20057;-76
2022/06/19 04:45:39;;;;;;;1999.90;995.22;;;14.50;99.90;;;;;;5048097;28;20045;-80
2022/06/19 04:48:06;;;;;;;1999.90;999.90;;;14.20;99.90;;;;;;5050324;28;20041;-76
2022/06/19 04:50:32;;;;;;;1999.90;988.25;;;13.90;99.90;;;;;;5066394;28;20125;-76
2022/06/19 04:52:57;;;;;;;1999.90;877.78;;;14.40;99.90;;;;;;5066199;28;20381;-76
2022/06/19 04:55:23;;;;;;;1999.90;802.08;;;14.10;99.90;;;;;;5050689;28;20072;-82
2022/06/19 04:57:49;;;;;;;1999.90;798.80;;;14.50;99.90;;;;;;5049477;28;20098;-82
2022/06/19 05:00:16;;;;;;;1999.90;884.33;;;14.40;99.90;;;;;;5050240;28;20053;-76
2022/06/19 05:02:42;;;;;;;1999.90;783.75;;;14.10;99.90;;;;;;5049111;28;20075;-77
2022/06/19 05:05:15;;;;;;;1999.90;830.50;;;14.80;99.90;;;;;;5048130;28;20055;-76
2022/06/19 05:07:41;;;;;;;1999.90;826.63;;;14.90;99.90;;;;;;5049872;28;20059;-76
2022/06/19 05:10:08;;;;;;;1999.90;851.03;;;14.50;99.90;;;;;;5051714;28;20098;-75
2022/06/19 05:12:33;;;;;;;1999.90;868.95;;;14.40;99.90;;;;;;5047403;28;20158;-76
2022/06/19 05:14:59;;;;;;;1999.90;770.42;;;14.40;99.90;;;;;;5049659;28;20076;-76
2022/06/19 05:17:25;;;;;;;1999.90;800.58;;;13.80;99.90;;;;;;5047229;28;20112;-75
2022/06/19 05:19:50;;;;;;;1999.90;640.00;;;14.40;99.90;;;;;;5050665;28;20041;-76
2022/06/19 05:22:16;;;;;;;1999.90;547.78;;;14.20;99.90;;;;;;5050432;28;20507;-75
2022/06/19 05:24:42;;;;;;;1725.25;305.23;;;13.70;99.90;;;;;;5053730;28;20047;-76
2022/06/19 05:27:09;;;;;;;1388.53;244.95;;;13.70;99.90;;;;;;5054894;28;20087;-76
2022/06/19 05:29:36;;;;;;;1932.88;456.20;;;14.00;99.90;;;;;;5054518;28;20041;-76
2022/06/19 05:32:04;;;;;;;1999.90;999.90;;;13.70;99.90;;;;;;5054503;28;20056;-76
2022/06/19 05:34:31;;;;;;;1999.90;999.90;;;13.50;99.90;;;;;;5054693;28;20049;-76
2022/06/19 05:36:56;;;;;;;1999.90;999.90;;;13.70;99.90;;;;;;5055118;28;20068;-76
2022/06/19 05:39:22;;;;;;;1720.47;802.35;;;13.70;99.90;;;;;;5054942;28;20053;-76
2022/06/19 05:41:47;;;;;;;1659.22;372.17;;;13.50;99.90;;;;;;5051266;28;20049;-77
2022/06/19 05:44:14;;;;;;;1526.57;340.92;;;13.70;99.90;;;;;;5053853;28;20068;-76
2022/06/19 05:46:41;;;;;;;1999.90;999.90;;;13.40;99.90;;;;;;5054223;28;20064;-76
2022/06/19 05:49:08;;;;;;;1999.90;999.90;;;13.30;99.90;;;;;;5054273;28;20409;-77
2022/06/19 05:51:34;;;;;;;1891.35;822.75;;;13.60;99.90;;;;;;5054259;28;20120;-76
2022/06/19 05:53:59;;;;;;;1999.90;999.90;;;13.80;99.90;;;;;;5070093;28;20080;-76
2022/06/19 05:56:27;;;;;;;1849.35;809.00;;;13.40;99.90;;;;;;5054428;28;20056;-77
2022/06/19 05:58:53;;;;;;;1999.90;999.90;;;13.60;99.90;;;;;;5086941;28;20524;-76
2022/06/19 06:01:20;;;;;;;1999.90;999.90;;;13.50;99.90;;;;;;5054041;28;20049;-83
2022/06/19 06:03:47;;;;;;;1999.90;999.90;;;13.70;99.90;;;;;;5052906;28;20063;-75
2022/06/19 06:06:22;;;;;;;1999.90;999.90;;;13.50;99.90;;;;;;5054369;28;20099;-75
2022/06/19 06:08:49;;;;;;;1999.90;999.90;;;13.50;99.90;;;;;;5052525;28;20053;-75
2022/06/19 06:11:15;;;;;;;1999.90;999.90;;;13.50;99.90;;;;;;5054085;28;20041;-75
2022/06/19 06:13:41;;;;;;;1999.90;999.90;;;13.40;99.90;;;;;;5053613;28;20128;-76
2022/06/19 06:16:07;;;;;;;1999.90;999.90;;;13.60;99.90;;;;;;5054322;28;20145;-76
2022/06/19 06:18:33;;;;;;;1999.90;999.90;;;13.60;99.90;;;;;;5068408;28;20045;-76
2022/06/19 06:21:02;;;;;;;1999.90;999.90;;;13.60;99.90;;;;;;5053397;28;20103;-76
2022/06/19 06:23:29;;;;;;;1999.90;999.90;;;13.60;99.90;;;;;;5052863;28;20056;-75
2022/06/19 06:26:02;;;;;;;1999.90;999.90;;;13.70;99.90;;;;;;5069581;28;20089;-78
2022/06/19 06:28:29;;;;;;;1737.47;804.97;;;13.70;99.90;;;;;;5053116;28;20095;-75
2022/06/19 06:30:55;;;;;;;1999.90;999.90;;;13.80;99.90;;;;;;5054279;28;20357;-75
2022/06/19 06:33:20;;;;;;;1441.55;577.13;;;13.70;99.90;;;;;;5053147;28;20048;-76
2022/06/19 06:35:46;;;;;;;1979.57;839.95;;;13.80;99.90;;;;;;5068461;28;20048;-75
2022/06/19 06:38:12;;;;;;;1078.68;205.50;;;13.90;99.90;;;;;;5053811;28;20049;-75
2022/06/19 06:40:38;;;;;;;1753.70;376.67;;;13.80;99.90;;;;;;5052051;28;20056;-75
2022/06/19 06:43:03;;;;;;;1471.28;266.50;;;13.80;99.90;;;;;;5053384;28;20049;-75
2022/06/19 06:45:29;;;;;;;1705.88;788.60;;;14.00;99.90;;;;;;5052279;28;20489;-75
2022/06/19 06:47:55;;;;;;;1010.63;276.40;;;14.00;99.90;;;;;;5052207;28;20080;-79
2022/06/19 06:50:22;;;;;;;1280.95;294.73;;;14.00;99.90;;;;;;5053444;28;20107;-75
2022/06/19 06:52:48;;;;;;;1630.17;596.73;;;13.90;99.90;;;;;;5053351;28;20072;-77
2022/06/19 06:55:14;;;;;;;1986.07;825.53;;;13.90;99.90;;;;;;5052119;28;20041;-76
2022/06/19 06:57:40;;;;;;;1999.90;638.42;;;14.00;99.90;;;;;;5052298;28;20041;-76
2022/06/19 07:00:09;;;;;;;1648.45;382.08;;;14.00;99.90;;;;;;5053245;28;20071;-76
2022/06/19 07:02:35;;;;;;;1814.15;813.85;;;14.10;99.90;;;;;;5052898;28;20059;-81
2022/06/19 07:05:00;;;;;;;1470.50;500.25;;;14.00;1.00;;;;;;5052308;28;20041;-75
2022/06/19 07:07:26;;;;;;;1999.90;999.90;;;14.10;1.00;;;;;;5052923;28;20067;-76
2022/06/19 07:09:52;;;;;;;1881.07;841.60;;;14.20;1.00;;;;;;5053081;28;20056;-76
2022/06/19 07:12:17;;;;;;;1999.90;999.90;;;14.30;99.90;;;;;;5052638;28;20335;-77
2022/06/19 07:14:43;;;;;;;1558.93;696.28;;;14.30;99.90;;;;;;5053271;28;20063;-76
2022/06/19 07:17:09;;;;;;;1999.90;999.90;;;14.30;99.90;;;;;;5052148;28;20123;-76
2022/06/19 07:19:34;;;;;;;1999.90;999.90;;;14.30;99.90;;;;;;5067778;28;20500;-77
2022/06/19 07:22:00;;;;;;;1982.43;484.05;;;14.30;99.90;;;;;;5053429;28;20086;-76
2022/06/19 07:24:26;;;;;;;1999.90;999.90;;;14.30;99.90;;;;;;5053327;28;20045;-77
2022/06/19 07:26:52;;;;;;;1651.30;781.40;;;14.30;99.90;;;;;;5051340;28;20099;-77
2022/06/19 07:29:25;;;;;;;1999.90;999.90;;;14.40;99.90;;;;;;5068030;28;20080;-77
2022/06/19 07:31:51;;;;;;;1918.70;835.13;;;14.40;99.90;;;;;;5051661;28;20074;-76
2022/06/19 07:34:16;;;;;;;1818.70;831.83;;;14.60;99.90;;;;;;5051489;28;20053;-79
2022/06/19 07:36:43;;;;;;;1397.80;275.20;;;15.20;99.90;;;;;;5050747;28;20045;-80
2022/06/19 07:39:09;;;;;;;1753.25;802.08;;;14.80;99.90;;;;;;5067402;28;20051;-77
2022/06/19 07:41:35;;;;;;;1363.38;283.35;;;14.90;99.90;;;;;;5052675;28;20087;-77
2022/06/19 07:44:00;;;;;;;1710.03;447.42;;;14.70;99.90;;;;;;5052367;28;20460;-76
2022/06/19 07:46:26;;;;;;;1999.90;999.90;;;14.70;99.90;;;;;;5052019;28;20049;-75
2022/06/19 07:51:36;;;;;;;1938.70;888.00;;;14.70;99.90;;;;;;5052501;28;20059;-84
2022/06/19 07:54:02;;;;;;;1999.90;999.90;;;14.60;99.90;;;;;;5052323;28;20120;-77
2022/06/19 07:56:31;;;;;;;1999.90;999.90;;;14.50;99.90;;;;;;5051332;28;20037;-76
2022/06/19 07:58:58;;;;;;;1999.90;999.90;;;14.60;99.90;;;;;;5051915;28;20085;-76
2022/06/19 08:01:24;;;;;;;1999.90;999.90;;;14.50;99.90;;;;;;5052208;28;20103;-77
2022/06/19 08:03:49;;;;;;;1999.90;999.90;;;14.40;99.90;;;;;;5052022;28;20440;-76
2022/06/19 08:06:17;;;;;;;1999.90;878.50;;;14.50;99.90;;;;;;5051528;28;20094;-76
2022/06/19 08:08:43;;;;;;;;;;;14.40;99.90;;;;;;5051570;28;20524;-75
2022/06/19 08:11:09;;;;;;;1999.90;999.90;;;14.50;99.90;;;;;;5051814;28;19921;-77
2022/06/19 08:13:35;;;;;;;1999.90;999.90;;;14.50;99.90;;;;;;5050912;28;20068;-78
2022/06/19 08:16:04;;;;;;;1999.90;999.90;;;14.60;99.90;;;;;;5051157;28;20041;-76
2022/06/19 08:18:32;;;;;;;1999.90;999.90;;;14.70;99.90;;;;;;5051963;28;20056;-76
2022/06/19 08:20:58;;;;;;;1999.90;972.80;;;14.70;99.90;;;;;;5050839;28;20477;-76
2022/06/19 08:23:24;;;;;;;1999.90;999.90;;;14.80;99.90;;;;;;5051163;28;20053;-76
2022/06/19 08:25:50;;;;;;;1999.90;999.90;;;14.70;99.90;;;;;;5050822;28;20041;-75
2022/06/19 08:28:22;;;;;;;1999.90;999.90;;;14.70;99.90;;;;;;5051459;28;20044;-76
2022/06/19 08:30:47;;;;;;;1867.65;863.72;;;14.70;97.60;;;;;;5050870;28;20053;-76
2022/06/19 08:33:13;;;;;;;1999.90;909.53;;;14.70;99.90;;;;;;5051038;28;20048;-76
2022/06/19 08:35:47;;;;;;;1999.90;999.90;;;14.70;99.90;;;;;;5051513;28;20044;-76
2022/06/19 08:38:19;;;;;;;1999.90;999.90;;;14.70;99.90;;;;;;5051713;28;20123;-77
2022/06/19 08:41:22;;;;;;;1999.90;999.90;;;14.80;99.90;;;;;;5050755;28;20458;-76
2022/06/19 08:43:59;;;;;;;1999.90;999.90;;;14.90;96.70;;;;;;5051239;28;20122;-77
2022/06/19 08:46:55;;;;;;;1999.90;999.90;;;15.00;94.80;;;;;;5048994;28;20053;-76
2022/06/19 08:49:45;;;;;;;1999.90;999.90;;;15.20;94.40;;;;;;5051201;28;20496;-75
2022/06/19 08:52:32;;;;;;;1966.60;710.63;;;15.30;65.70;;;;;;5050917;28;20084;-76
2022/06/19 08:55:16;;;;;;;1999.90;940.47;;;15.40;71.50;;;;;;5050825;28;20049;-75
2022/06/19 08:58:05;;;;;;;1999.90;948.72;;;15.70;54.30;;;;;;5049949;28;20045;-77
2022/06/19 09:00:39;;;;;;;;;;;15.80;9.70;;;;;;5048511;28;20071;-76
2022/06/19 09:03:17;;;;;;;1999.90;919.08;;;15.80;1.00;;;;;;5049825;28;19964;-78
2022/06/19 09:05:48;;;;;;;1999.90;816.85;;;15.80;1.00;;;;;;5049747;28;20539;-76
2022/06/19 09:08:26;;;;;;;1999.90;999.90;;;15.90;1.00;;;;;;5050011;28;20477;-75
2022/06/19 09:11:07;;;;;;;1629.82;768.08;;;16.00;1.00;;;;;;5048319;28;20068;-76
2022/06/19 09:13:52;;;;;;;1999.90;911.95;;;16.10;1.00;;;;;;5050220;28;20063;-78
2022/06/19 09:16:32;;;;;;;1999.90;823.22;;;16.20;1.00;;;;;;5050681;28;20187;-79
2022/06/19 09:19:24;;;;;;;1468.63;999.90;;;16.30;1.00;;;;;;5065529;28;20464;-78
2022/06/19 09:21:55;;;;;;;1274.22;999.90;;;16.30;1.00;;;;;;5049729;28;20068;-76
2022/06/19 09:24:45;;;;;;;1430.80;999.90;;;16.20;1.00;;;;;;5050752;28;20051;-76
2022/06/19 09:27:14;;;;;;;1999.90;999.90;;;16.30;1.00;;;;;;5050527;28;20143;-75
2022/06/19 09:29:48;;;;;;;1394.60;999.90;;;16.30;1.00;;;;;;5050066;28;20436;-75
2022/06/19 09:32:42;;;;;;;1969.35;964.22;;;16.40;1.00;;;;;;5050983;28;20114;-76
2022/06/19 09:35:18;;;;;;;1027.45;905.85;;;16.50;1.00;;;;;;5050825;28;20048;-76
2022/06/19 09:37:59;;;;;;;1999.90;999.90;;;16.60;1.00;;;;;;5051065;28;20107;-76
2022/06/19 09:40:35;;;;;;;1857.13;983.75;;;16.80;1.00;;;;;;5049717;28;20150;-76
2022/06/19 09:43:08;;;;;;;1272.60;999.90;;;17.10;1.00;;;;;;5049927;28;20056;-76
2022/06/19 09:45:44;;;;;;;1095.65;957.33;;;17.30;1.00;;;;;;5049849;28;20053;-78
2022/06/19 09:48:09;;;;;;;1628.82;999.90;;;17.40;1.00;;;;;;5050311;28;20052;-77
2022/06/19 09:50:58;;;;;;;1676.00;999.90;;;17.50;99.90;;;;;;5050773;28;20075;-77
2022/06/19 09:53:46;;;;;;;1430.47;999.90;;;18.00;1.00;;;;;;5039027;28;20133;-77
2022/06/19 09:56:29;;;;;;;1999.90;952.60;;;18.30;99.90;;;;;;5049469;28;20597;-76
2022/06/19 09:59:09;;;;;;;1801.95;926.17;;;18.50;99.90;;;;;;5050207;28;20076;-76
2022/06/19 10:01:36;;;;;;;1601.95;987.60;;;18.90;99.90;;;;;;5049588;28;20055;-77
2022/06/19 10:04:39;;;;;;;1086.82;948.20;;;19.10;99.90;;;;;;5049504;28;20049;-76
2022/06/19 10:07:15;;;;;;;1294.60;993.58;;;19.30;99.90;;;;;;5045425;28;20088;-76
2022/06/19 10:09:50;;;;;;;677.80;619.10;;;19.50;99.90;;;;;;5050288;28;20053;-76
2022/06/19 10:12:46;;;;;;;1456.88;999.90;;;19.30;99.90;;;;;;5052140;28;20033;-76
2022/06/19 10:15:25;;;;;;;648.30;603.80;;;19.30;99.90;;;;;;5052446;28;20048;-76
2022/06/19 10:18:09;;;;;;;700.40;651.28;;;19.20;99.90;;;;;;5053890;28;20086;-77
2022/06/19 10:20:45;;;;;;;708.78;660.33;;;18.90;99.90;;;;;;5054114;28;20072;-76
2022/06/19 10:23:35;;;;;;;726.53;674.60;;;18.90;99.90;;;;;;5052209;28;20603;-76
2022/06/19 10:26:12;;;;;;;888.25;789.70;;;18.90;99.90;;;;;;5051941;28;20045;-78
2022/06/19 10:28:38;;;;;;;666.97;613.22;;;18.90;99.90;;;;;;5050702;28;20098;-76
2022/06/19 10:31:40;;;;;;;880.05;780.13;;;18.80;99.90;;;;;;5052643;28;20041;-78
2022/06/19 10:34:46;;;;;;;864.30;779.05;;;18.80;99.90;;;;;;5051457;28;20041;-79
2022/06/19 10:37:39;;;;;;;703.38;653.80;;;18.80;99.90;;;;;;5050760;28;20057;-75
2022/06/19 10:40:25;;;;;;;1429.97;999.90;;;18.80;99.90;;;;;;5052906;28;20071;-77
2022/06/19 10:43:15;;;;;;;708.22;659.45;;;18.90;99.90;;;;;;5053185;28;20060;-76
2022/06/19 10:45:52;;;;;;;866.10;780.05;;;18.80;99.90;;;;;;5053288;28;20127;-76
2022/06/19 10:48:42;;;;;;;556.67;520.13;;;18.80;99.90;;;;;;5053243;28;20081;-75
2022/06/19 10:51:28;;;;;;;750.83;697.33;;;18.70;99.90;;;;;;5052824;28;20045;-75
2022/06/19 10:54:09;;;;;;;592.70;552.40;;;18.70;99.90;;;;;;5053778;28;20465;-84
2022/06/19 10:56:53;;;;;;;824.55;761.97;;;18.70;99.90;;;;;;5052956;28;20045;-75
2022/06/19 10:59:21;;;;;;;760.25;702.03;;;18.70;99.90;;;;;;5034784;28;20504;-76
2022/06/19 11:05:01;;;;;;;559.63;521.20;;;18.70;99.90;;;;;;5069141;28;20103;-78
2022/06/19 11:07:29;;;;;;;1203.90;929.28;;;18.70;99.90;;;;;;5053130;28;20049;-76
2022/06/19 11:10:03;;;;;;;897.80;793.83;;;18.70;99.90;;;;;;5068115;28;20045;-77
2022/06/19 11:12:49;;;;;;;566.33;527.80;;;18.80;99.90;;;;;;5052682;28;20045;-76
2022/06/19 11:15:35;;;;;;;767.33;701.97;;;18.80;99.90;;;;;;5052383;28;20409;-76
2022/06/19 11:18:07;;;;;;;611.25;568.22;;;18.70;99.90;;;;;;5051080;28;20492;-76
2022/06/19 11:20:33;;;;;;;770.25;704.75;;;18.80;99.90;;;;;;5052679;28;20059;-76
2022/06/19 11:23:23;;;;;;;522.67;488.35;;;18.80;99.90;;;;;;5067480;28;20067;-78
2022/06/19 11:26:05;;;;;;;1701.22;999.90;;;18.80;99.90;;;;;;5052594;28;20132;-82
2022/06/19 11:28:40;;;;;;;1019.28;901.85;;;18.70;99.90;;;;;;5052371;28;20081;-78
2022/06/19 11:31:21;;;;;;;1768.72;999.90;;;18.50;99.90;;;;;;5051207;28;20080;-76
2022/06/19 11:33:51;;;;;;;936.00;854.85;;;18.30;99.90;;;;;;5051558;28;20045;-77
2022/06/19 11:36:30;;;;;;;680.58;619.83;;;18.30;99.90;;;;;;5051920;28;20051;-76
2022/06/19 11:38:57;;;;;;;519.15;478.63;;;18.10;99.90;;;;;;5052075;28;20120;-76
2022/06/19 11:41:35;;;;;;;976.95;880.13;;;17.90;99.90;;;;;;5052039;28;20049;-81
2022/06/19 11:44:19;;;;;;;640.70;589.55;;;17.80;99.90;;;;;;5085139;28;20228;-76
2022/06/19 11:46:54;;;;;;;708.45;649.50;;;17.90;99.90;;;;;;5051553;28;20053;-78
2022/06/19 11:49:40;;;;;;;725.13;667.15;;;18.00;99.90;;;;;;5052112;28;20064;-76
2022/06/19 11:52:28;;;;;;;1999.90;999.90;;;18.10;99.90;;;;;;5052332;28;20077;-75
2022/06/19 11:54:55;;;;;;;613.95;570.08;;;18.30;99.90;;;;;;5052238;28;20048;-76
2022/06/19 11:57:33;;;;;;;798.47;740.20;;;18.50;99.90;;;;;;5051497;28;20247;-75
2022/06/19 12:00:01;;;;;;;1417.77;920.67;;;18.70;99.90;;;;;;5051668;28;20068;-75
2022/06/19 12:02:32;;;;;;;701.58;651.90;;;18.80;99.90;;;;;;5051865;28;20375;-75
2022/06/19 12:05:02;;;;;;;1017.78;898.50;;;18.90;99.90;;;;;;5051321;28;20048;-77
2022/06/19 12:07:34;;;;;;;1008.53;918.97;;;19.00;99.90;;;;;;5052011;28;20130;-75
2022/06/19 12:10:25;;;;;;;957.42;871.72;;;19.00;99.90;;;;;;5052259;28;20114;-76
2022/06/19 12:12:57;;;;;;;974.20;894.15;;;19.00;99.90;;;;;;5050013;28;20053;-75
2022/06/19 12:15:28;;;;;;;1009.70;921.35;;;19.00;99.90;;;;;;5051919;28;20273;-75
2022/06/19 12:17:59;;;;;;;986.22;898.08;;;19.00;99.90;;;;;;5051925;28;20080;-76
2022/06/19 12:20:33;;;;;;;1035.80;943.40;;;18.90;99.90;;;;;;5051541;28;20486;-76
2022/06/19 12:23:10;;;;;;;1088.80;984.22;;;18.80;99.90;;;;;;5051284;28;20099;-75
2022/06/19 12:25:53;;;;;;;1266.07;986.20;;;18.80;99.90;;;;;;5051687;28;20128;-75
2022/06/19 12:28:24;;;;;;;1062.57;953.70;;;19.30;99.90;;;;;;5051519;28;20124;-77
2022/06/19 12:31:05;;;;;;;1062.72;966.03;;;20.20;99.90;;;;;;5050846;28;20063;-76